Private Wetterstation Sandau
Wetterdaten: Woche 03.09.12 - 09.09.12 (KW36)
Datum Zeit Temp. A. Feuchte A. Luftdruck Regen Wind Richtung Taupunkt Windchill
03.09.2012 00:00 14,2 C 78 % 1024,8 hPa 0,0 l/m 0,0 km/h (0 Bft) N 10,3 C 14,2 C
03.09.2012 01:00 13,5 C 80 % 1024,8 hPa 0,0 l/m 0,0 km/h (0 Bft) N 10,1 C 13,5 C
03.09.2012 02:00 13,2 C 82 % 1024,7 hPa 0,0 l/m 0,0 km/h (0 Bft) N 10,2 C 13,2 C
03.09.2012 03:00 13,2 C 83 % 1024,3 hPa 0,0 l/m 0,3 km/h (0 Bft) S 10,4 C 13,2 C
03.09.2012 04:00 12,3 C 84 % 1024,2 hPa 0,0 l/m 0,2 km/h (0 Bft) S 9,6 C 12,3 C
03.09.2012 05:00 11,5 C 85 % 1024,1 hPa 0,0 l/m 0,0 km/h (0 Bft) N 9,1 C 11,5 C
03.09.2012 06:00 11,2 C 86 % 1024,3 hPa 0,0 l/m 0,1 km/h (0 Bft) S 9,0 C 11,2 C
03.09.2012 07:00 11,9 C 87 % 1024,8 hPa 0,0 l/m 0,4 km/h (0 Bft) W 9,8 C 11,9 C
03.09.2012 08:00 14,9 C 82 % 1024,9 hPa 0,0 l/m 1,6 km/h (1 Bft) W 11,9 C 14,9 C
03.09.2012 09:00 18,2 C 72 % 1024,7 hPa 0,0 l/m 1,5 km/h (1 Bft) W-SW 13,1 C 18,2 C
03.09.2012 10:00 20,3 C 65 % 1024,8 hPa 0,0 l/m 1,7 km/h (1 Bft) W 13,5 C 20,3 C
03.09.2012 11:00 21,2 C 60 % 1024,9 hPa 0,0 l/m 4,9 km/h (1 Bft) W-NW 13,0 C 21,2 C
03.09.2012 12:00 22,5 C 55 % 1024,5 hPa 0,0 l/m 5,9 km/h (2 Bft) W-NW 13,0 C 22,5 C
03.09.2012 13:00 22,2 C 55 % 1024,4 hPa 0,0 l/m 3,1 km/h (1 Bft) W-NW 12,8 C 22,2 C
03.09.2012 14:00 21,0 C 60 % 1024,3 hPa 0,0 l/m 4,1 km/h (1 Bft) N-NW 12,8 C 21,0 C
03.09.2012 15:00 21,4 C 60 % 1024,1 hPa 0,0 l/m 3,2 km/h (1 Bft) NW 13,2 C 21,4 C
03.09.2012 16:00 21,4 C 59 % 1023,8 hPa 0,0 l/m 2,3 km/h (1 Bft) N-NO 13,1 C 21,4 C
03.09.2012 17:00 21,3 C 60 % 1023,7 hPa 0,0 l/m 2,7 km/h (1 Bft) N 13,3 C 21,3 C
03.09.2012 18:00 20,3 C 63 % 1023,5 hPa 0,0 l/m 2,5 km/h (1 Bft) N-NO 13,1 C 20,3 C
03.09.2012 19:00 19,7 C 66 % 1023,6 hPa 0,0 l/m 1,1 km/h (1 Bft) N-NO 13,2 C 19,7 C
03.09.2012 20:00 17,7 C 71 % 1023,8 hPa 0,0 l/m 0,0 km/h (0 Bft) N 12,3 C 17,7 C
03.09.2012 21:00 15,8 C 76 % 1024,0 hPa 0,0 l/m 0,0 km/h (0 Bft) N 11,5 C 15,8 C
03.09.2012 22:00 14,6 C 80 % 1024,0 hPa 0,0 l/m 0,0 km/h (0 Bft) N 11,1 C 14,6 C
03.09.2012 23:00 13,7 C 83 % 1024,1 hPa 0,0 l/m 0,2 km/h (0 Bft) N-NO 10,8 C 13,7 C
04.09.2012 00:00 13,0 C 85 % 1024,2 hPa 0,0 l/m 0,0 km/h (0 Bft) N 10,5 C 13,0 C
04.09.2012 01:00 12,5 C 86 % 1024,1 hPa 0,0 l/m 0,2 km/h (0 Bft) NW 10,2 C 12,5 C
04.09.2012 02:00 12,5 C 87 % 1024,0 hPa 0,0 l/m 0,2 km/h (0 Bft) W 10,4 C 12,5 C
04.09.2012 03:00 12,9 C 88 % 1023,8 hPa 0,0 l/m 0,3 km/h (0 Bft) SO 10,9 C 12,9 C
04.09.2012 04:00 13,2 C 88 % 1023,5 hPa 0,0 l/m 1,6 km/h (1 Bft) W-NW 11,2 C 13,2 C
04.09.2012 05:00 12,5 C 89 % 1023,4 hPa 0,0 l/m 1,6 km/h (1 Bft) W-NW 10,7 C 12,5 C
04.09.2012 06:00 12,4 C 89 % 1023,4 hPa 0,0 l/m 0,7 km/h (0 Bft) W-NW 10,7 C 12,4 C
04.09.2012 07:00 12,9 C 89 % 1023,6 hPa 0,0 l/m 0,6 km/h (0 Bft) NW 11,2 C 12,9 C
04.09.2012 08:00 14,3 C 87 % 1023,8 hPa 0,0 l/m 1,3 km/h (1 Bft) W 12,1 C 14,3 C
04.09.2012 09:00 16,3 C 82 % 1023,8 hPa 0,0 l/m 1,2 km/h (1 Bft) NW 13,1 C 16,3 C
04.09.2012 10:00 18,5 C 74 % 1023,7 hPa 0,0 l/m 2,0 km/h (1 Bft) W 13,7 C 18,5 C
04.09.2012 11:00 20,5 C 65 % 1023,4 hPa 0,0 l/m 6,6 km/h (2 Bft) W-SW 13,6 C 20,5 C
04.09.2012 12:00 22,0 C 56 % 1022,9 hPa 0,0 l/m 8,4 km/h (2 Bft) W-SW 12,9 C 22,0 C
04.09.2012 13:00 23,3 C 49 % 1022,3 hPa 0,0 l/m 7,2 km/h (2 Bft) W-SW 12,0 C 23,3 C
04.09.2012 14:00 24,3 C 46 % 1021,9 hPa 0,0 l/m 6,1 km/h (2 Bft) W-SW 12,1 C 24,3 C
04.09.2012 15:00 25,2 C 46 % 1021,3 hPa 0,0 l/m 6,4 km/h (2 Bft) W-SW 12,8 C 25,2 C
04.09.2012 16:00 25,5 C 46 % 1020,7 hPa 0,0 l/m 5,8 km/h (1 Bft) SW 13,0 C 25,5 C
04.09.2012 17:00 25,4 C 47 % 1020,2 hPa 0,0 l/m 6,9 km/h (2 Bft) W 13,2 C 25,4 C
04.09.2012 18:00 24,2 C 50 % 1019,7 hPa 0,0 l/m 5,0 km/h (1 Bft) W-NW 13,0 C 24,2 C
04.09.2012 19:00 22,7 C 53 % 1019,5 hPa 0,0 l/m 1,7 km/h (1 Bft) W-NW 12,8 C 22,7 C
04.09.2012 20:00 20,0 C 61 % 1019,6 hPa 0,0 l/m 0,0 km/h (0 Bft) N 12,2 C 20,0 C
04.09.2012 21:00 17,8 C 68 % 1019,8 hPa 0,0 l/m 0,0 km/h (0 Bft) N 11,8 C 17,8 C
04.09.2012 22:00 16,5 C 73 % 1019,7 hPa 0,0 l/m 0,0 km/h (0 Bft) N 11,7 C 16,5 C
04.09.2012 23:00 15,5 C 77 % 1019,8 hPa 0,0 l/m 0,0 km/h (0 Bft) N 11,4 C 15,5 C
05.09.2012 00:00 14,7 C 80 % 1019,8 hPa 0,0 l/m 0,0 km/h (0 Bft) W-NW 11,3 C 14,7 C
05.09.2012 01:00 14,3 C 82 % 1019,8 hPa 0,0 l/m 0,7 km/h (0 Bft) W-NW 11,3 C 14,3 C
05.09.2012 02:00 14,2 C 84 % 1019,6 hPa 0,0 l/m 1,2 km/h (1 Bft) W-NW 11,5 C 14,2 C
05.09.2012 03:00 13,9 C 84 % 1019,5 hPa 0,0 l/m 0,5 km/h (0 Bft) W-NW 11,2 C 13,9 C
05.09.2012 04:00 13,8 C 85 % 1019,3 hPa 0,0 l/m 1,0 km/h (0 Bft) W-NW 11,3 C 13,8 C
05.09.2012 05:00 14,0 C 86 % 1019,3 hPa 0,0 l/m 1,1 km/h (0 Bft) W-NW 11,7 C 14,0 C
05.09.2012 06:00 14,8 C 87 % 1019,4 hPa 0,0 l/m 2,8 km/h (1 Bft) NW 12,6 C 14,8 C
05.09.2012 07:00 15,5 C 88 % 1019,6 hPa 0,0 l/m 1,7 km/h (1 Bft) NW 13,5 C 15,5 C
05.09.2012 08:00 16,1 C 88 % 1019,8 hPa 0,0 l/m 2,3 km/h (1 Bft) W-NW 14,0 C 16,1 C
05.09.2012 09:00 16,8 C 82 % 1020,3 hPa 0,0 l/m 6,7 km/h (2 Bft) N-NO 13,6 C 16,8 C
05.09.2012 10:00 17,0 C 74 % 1020,5 hPa 0,0 l/m 7,3 km/h (2 Bft) N-NO 12,3 C 17,0 C
05.09.2012 11:00 17,5 C 69 % 1020,8 hPa 0,0 l/m 6,1 km/h (2 Bft) N-NO 11,8 C 17,5 C
05.09.2012 12:00 19,4 C 59 % 1020,8 hPa 0,0 l/m 4,9 km/h (1 Bft) N 11,1 C 19,4 C
05.09.2012 13:00 20,2 C 54 % 1020,7 hPa 0,0 l/m 7,3 km/h (2 Bft) N-NW 10,5 C 20,2 C
05.09.2012 14:00 20,7 C 50 % 1020,6 hPa 0,0 l/m 9,4 km/h (2 Bft) N 9,8 C 20,7 C
05.09.2012 15:00 20,8 C 49 % 1020,5 hPa 0,0 l/m 8,4 km/h (2 Bft) N 9,6 C 20,8 C
05.09.2012 16:00 20,5 C 48 % 1020,5 hPa 0,0 l/m 9,0 km/h (2 Bft) N 9,1 C 20,5 C
05.09.2012 17:00 20,7 C 46 % 1020,3 hPa 0,0 l/m 7,6 km/h (2 Bft) N-NO 8,7 C 20,7 C
05.09.2012 18:00 19,7 C 49 % 1020,1 hPa 0,0 l/m 9,1 km/h (2 Bft) NW 8,6 C 19,7 C
05.09.2012 19:00 18,6 C 53 % 1020,4 hPa 0,0 l/m 8,3 km/h (2 Bft) N-NW 8,9 C 18,6 C
05.09.2012 20:00 17,5 C 58 % 1021,1 hPa 0,0 l/m 7,3 km/h (2 Bft) NW 9,2 C 17,5 C
05.09.2012 21:00 16,8 C 60 % 1021,5 hPa 0,0 l/m 5,4 km/h (1 Bft) W-NW 9,0 C 16,8 C
05.09.2012 22:00 16,1 C 60 % 1022,0 hPa 0,0 l/m 5,9 km/h (2 Bft) N-NO 8,5 C 16,1 C
05.09.2012 23:00 15,6 C 64 % 1022,2 hPa 0,0 l/m 4,7 km/h (1 Bft) N-NW 8,8 C 15,6 C
06.09.2012 00:00 14,8 C 67 % 1022,8 hPa 0,0 l/m 6,4 km/h (2 Bft) NW 8,8 C 14,8 C
06.09.2012 01:00 14,0 C 71 % 1023,0 hPa 0,0 l/m 5,3 km/h (1 Bft) W-NW 8,9 C 14,0 C
06.09.2012 02:00 13,8 C 73 % 1023,3 hPa 0,0 l/m 5,2 km/h (1 Bft) W-NW 9,0 C 13,8 C
06.09.2012 03:00 13,6 C 74 % 1023,7 hPa 0,0 l/m 5,1 km/h (1 Bft) NW 9,0 C 13,6 C
06.09.2012 04:00 13,5 C 74 % 1023,8 hPa 0,0 l/m 7,9 km/h (2 Bft) NW 9,0 C 13,5 C
06.09.2012 05:00 12,5 C 77 % 1024,0 hPa 0,0 l/m 5,9 km/h (2 Bft) W-NW 8,5 C 12,5 C
06.09.2012 06:00 11,5 C 80 % 1024,2 hPa 0,0 l/m 4,3 km/h (1 Bft) W-NW 8,1 C 11,5 C
06.09.2012 07:00 11,8 C 81 % 1024,6 hPa 0,0 l/m 6,9 km/h (2 Bft) W-NW 8,6 C 11,8 C
06.09.2012 08:00 13,2 C 74 % 1024,9 hPa 0,0 l/m 7,2 km/h (2 Bft) W-NW 8,6 C 13,2 C
06.09.2012 09:00 14,6 C 64 % 1025,4 hPa 0,0 l/m 10,2 km/h (2 Bft) NO 7,9 C 14,6 C
06.09.2012 10:00 15,4 C 59 % 1026,0 hPa 0,0 l/m 11,6 km/h (2 Bft) N-NO 7,5 C 15,4 C
06.09.2012 11:00 17,0 C 53 % 1026,0 hPa 0,0 l/m 10,9 km/h (2 Bft) N 7,5 C 17,0 C
06.09.2012 12:00 17,3 C 50 % 1026,1 hPa 0,0 l/m 11,3 km/h (2 Bft) N-NO 6,9 C 17,3 C
06.09.2012 13:00 18,1 C 48 % 1026,2 hPa 0,0 l/m 8,5 km/h (2 Bft) NW 7,0 C 18,1 C
06.09.2012 14:00 19,6 C 45 % 1026,0 hPa 0,0 l/m 9,9 km/h (2 Bft) W-NW 7,2 C 19,6 C
06.09.2012 15:00 19,2 C 45 % 1025,7 hPa 0,0 l/m 7,9 km/h (2 Bft) W-NW 7,1 C 19,2 C
06.09.2012 16:00 19,1 C 46 % 1025,4 hPa 0,0 l/m 8,3 km/h (2 Bft) W-NW 7,2 C 19,1 C
06.09.2012 17:00 19,3 C 45 % 1025,0 hPa 0,0 l/m 9,3 km/h (2 Bft) W 7,2 C 19,3 C
06.09.2012 18:00 18,8 C 47 % 1024,4 hPa 0,0 l/m 6,1 km/h (2 Bft) W 7,2 C 18,8 C
06.09.2012 19:00 17,2 C 50 % 1024,2 hPa 0,0 l/m 5,5 km/h (1 Bft) W 6,5 C 17,2 C
06.09.2012 20:00 15,2 C 55 % 1024,2 hPa 0,0 l/m 5,5 km/h (1 Bft) W 6,2 C 15,2 C
06.09.2012 21:00 14,2 C 59 % 1024,1 hPa 0,0 l/m 5,8 km/h (2 Bft) W 6,3 C 14,2 C
06.09.2012 22:00 13,7 C 62 % 1023,7 hPa 0,0 l/m 4,6 km/h (1 Bft) SW 6,5 C 13,7 C
06.09.2012 23:00 13,7 C 63 % 1023,3 hPa 0,0 l/m 5,4 km/h (1 Bft) W-SW 6,7 C 13,7 C
07.09.2012 00:00 13,7 C 63 % 1023,4 hPa 0,0 l/m 8,2 km/h (2 Bft) W-SW 6,9 C 13,7 C
07.09.2012 01:00 13,2 C 66 % 1023,3 hPa 0,0 l/m 7,5 km/h (2 Bft) W-SW 6,8 C 13,2 C
07.09.2012 02:00 12,9 C 67 % 1022,4 hPa 0,0 l/m 11,2 km/h (2 Bft) W-SW 6,9 C 12,9 C
07.09.2012 03:00 12,8 C 68 % 1021,9 hPa 0,0 l/m 10,7 km/h (2 Bft) W-SW 7,1 C 12,8 C
07.09.2012 04:00 12,3 C 70 % 1021,3 hPa 0,0 l/m 9,9 km/h (2 Bft) W-SW 7,1 C 12,3 C
07.09.2012 05:00 12,4 C 71 % 1020,8 hPa 0,0 l/m 12,0 km/h (2 Bft) W-SW 7,3 C 12,4 C
07.09.2012 06:00 12,6 C 71 % 1020,4 hPa 0,0 l/m 15,9 km/h (3 Bft) W 7,5 C 12,6 C
07.09.2012 07:00 13,2 C 70 % 1020,3 hPa 0,0 l/m 13,9 km/h (3 Bft) W-SW 7,8 C 13,2 C
07.09.2012 08:00 14,5 C 67 % 1020,2 hPa 0,0 l/m 14,6 km/h (3 Bft) W-SW 8,5 C 14,5 C
07.09.2012 09:00 16,1 C 65 % 1020,2 hPa 0,0 l/m 14,8 km/h (3 Bft) W-SW 9,6 C 16,1 C
07.09.2012 10:00 16,8 C 66 % 1020,6 hPa 0,0 l/m 11,0 km/h (2 Bft) W 10,4 C 16,8 C
07.09.2012 11:00 17,4 C 68 % 1020,6 hPa 0,0 l/m 12,0 km/h (2 Bft) W-NW 11,4 C 17,4 C
07.09.2012 12:00 18,4 C 66 % 1020,3 hPa 0,0 l/m 11,5 km/h (2 Bft) W-NW 11,8 C 18,4 C
07.09.2012 13:00 19,3 C 64 % 1019,9 hPa 0,0 l/m 12,9 km/h (3 Bft) W-NW 12,2 C 19,3 C
07.09.2012 14:00 19,6 C 63 % 1020,1 hPa 0,0 l/m 11,7 km/h (2 Bft) W 12,4 C 19,6 C
07.09.2012 15:00 19,3 C 65 % 1020,1 hPa 0,0 l/m 9,0 km/h (2 Bft) W 12,6 C 19,3 C
07.09.2012 16:00 19,3 C 66 % 1019,9 hPa 0,0 l/m 7,9 km/h (2 Bft) W-SW 12,8 C 19,3 C
07.09.2012 17:00 19,5 C 67 % 1020,0 hPa 0,0 l/m 13,3 km/h (3 Bft) W-NW 13,1 C 19,5 C
07.09.2012 18:00 19,2 C 69 % 1020,0 hPa 0,0 l/m 12,0 km/h (2 Bft) W-NW 13,3 C 19,2 C
07.09.2012 19:00 17,8 C 78 % 1020,3 hPa 1,0 l/m 7,4 km/h (2 Bft) NW 13,9 C 17,8 C
07.09.2012 20:00 16,4 C 86 % 1020,8 hPa 0,0 l/m 8,8 km/h (2 Bft) W-NW 13,9 C 16,4 C
07.09.2012 21:00 16,0 C 87 % 1021,2 hPa 0,5 l/m 6,3 km/h (2 Bft) W-NW 13,9 C 16,0 C
07.09.2012 22:00 15,9 C 88 % 1021,5 hPa 0,0 l/m 5,6 km/h (1 Bft) W-NW 13,8 C 15,9 C
07.09.2012 23:00 15,6 C 89 % 1021,6 hPa 0,0 l/m 4,7 km/h (1 Bft) W-NW 13,7 C 15,6 C
08.09.2012 00:00 15,4 C 90 % 1021,4 hPa 0,0 l/m 3,2 km/h (1 Bft) W-NW 13,7 C 15,4 C
08.09.2012 01:00 15,4 C 90 % 1021,1 hPa 0,5 l/m 1,2 km/h (1 Bft) W-NW 13,8 C 15,4 C
08.09.2012 02:00 15,5 C 90 % 1020,9 hPa 0,5 l/m 3,0 km/h (1 Bft) W 13,8 C 15,5 C
08.09.2012 03:00 15,4 C 90 % 1020,8 hPa 0,5 l/m 2,9 km/h (1 Bft) W 13,9 C 15,4 C
08.09.2012 04:00 15,4 C 91 % 1020,4 hPa 1,6 l/m 4,4 km/h (1 Bft) W 14,0 C 15,4 C
08.09.2012 05:00 15,4 C 91 % 1020,0 hPa 0,5 l/m 4,2 km/h (1 Bft) W 14,0 C 15,4 C
08.09.2012 06:00 15,7 C 92 % 1019,8 hPa 0,5 l/m 7,0 km/h (2 Bft) W-NW 14,4 C 15,7 C
08.09.2012 07:00 15,9 C 92 % 1020,2 hPa 0,5 l/m 6,4 km/h (2 Bft) W-NW 14,6 C 15,9 C
08.09.2012 08:00 15,9 C 91 % 1020,5 hPa 0,0 l/m 5,2 km/h (1 Bft) W-NW 14,4 C 15,9 C
08.09.2012 09:00 16,5 C 91 % 1020,7 hPa 0,5 l/m 7,6 km/h (2 Bft) W-NW 15,0 C 16,5 C
08.09.2012 10:00 17,1 C 90 % 1021,0 hPa 0,0 l/m 6,8 km/h (2 Bft) W-NW 15,4 C 17,1 C
08.09.2012 11:00 18,4 C 86 % 1020,8 hPa 0,0 l/m 7,8 km/h (2 Bft) W 16,1 C 18,4 C
08.09.2012 12:00 20,1 C 77 % 1020,6 hPa 0,0 l/m 9,1 km/h (2 Bft) W-NW 15,9 C 20,1 C
08.09.2012 13:00 20,8 C 73 % 1020,2 hPa 0,0 l/m 6,5 km/h (2 Bft) W-NW 15,8 C 20,8 C
08.09.2012 14:00 21,0 C 72 % 1019,9 hPa 0,0 l/m 5,9 km/h (2 Bft) W-NW 15,6 C 21,0 C
08.09.2012 15:00 21,7 C 68 % 1019,6 hPa 0,0 l/m 13,6 km/h (3 Bft) W-NW 15,5 C 21,7 C
08.09.2012 16:00 22,2 C 63 % 1019,3 hPa 0,0 l/m 13,0 km/h (3 Bft) W 14,7 C 22,2 C
08.09.2012 17:00 21,3 C 64 % 1019,2 hPa 0,0 l/m 9,6 km/h (2 Bft) W 14,2 C 21,3 C
08.09.2012 18:00 20,9 C 66 % 1019,3 hPa 0,0 l/m 7,0 km/h (2 Bft) NW 14,3 C 20,9 C
08.09.2012 19:00 19,5 C 69 % 1019,4 hPa 0,0 l/m 3,6 km/h (1 Bft) NW 13,5 C 19,5 C
08.09.2012 20:00 17,5 C 75 % 1019,6 hPa 0,0 l/m 1,0 km/h (0 Bft) W-NW 12,9 C 17,5 C
08.09.2012 21:00 15,7 C 79 % 1019,8 hPa 0,0 l/m 0,0 km/h (0 Bft) N 12,2 C 15,7 C
08.09.2012 22:00 14,8 C 83 % 1020,0 hPa 0,0 l/m 0,0 km/h (0 Bft) N 12,0 C 14,8 C
08.09.2012 23:00 13,9 C 85 % 1020,3 hPa 0,0 l/m 0,0 km/h (0 Bft) N 11,4 C 13,9 C
09.09.2012 00:00 13,1 C 87 % 1020,6 hPa 0,0 l/m 0,0 km/h (0 Bft) N 10,9 C 13,1 C
09.09.2012 01:00 12,7 C 88 % 1020,5 hPa 0,0 l/m 0,0 km/h (0 Bft) N 10,7 C 12,7 C
09.09.2012 02:00 12,2 C 88 % 1020,4 hPa 0,5 l/m 0,3 km/h (0 Bft) SW 10,3 C 12,2 C
09.09.2012 03:00 11,9 C 89 % 1020,4 hPa 0,0 l/m 0,0 km/h (0 Bft) N 10,1 C 11,9 C
09.09.2012 04:00 12,3 C 90 % 1020,4 hPa 0,0 l/m 0,0 km/h (0 Bft) N 10,7 C 12,3 C
09.09.2012 05:00 12,6 C 90 % 1020,5 hPa 0,0 l/m 0,6 km/h (0 Bft) S 11,0 C 12,6 C
09.09.2012 06:00 13,0 C 90 % 1020,6 hPa 0,0 l/m 1,7 km/h (1 Bft) S-SO 11,4 C 13,0 C
09.09.2012 07:00 13,3 C 91 % 1020,7 hPa 0,0 l/m 1,4 km/h (1 Bft) O-SO 11,9 C 13,3 C
09.09.2012 08:00 14,3 C 91 % 1020,5 hPa 0,0 l/m 3,4 km/h (1 Bft) O-SO 12,8 C 14,3 C
09.09.2012 09:00 16,3 C 87 % 1020,7 hPa 0,0 l/m 7,2 km/h (2 Bft) SO 14,1 C 16,3 C
09.09.2012 10:00 18,1 C 80 % 1020,7 hPa 0,0 l/m 6,3 km/h (2 Bft) SO 14,7 C 18,1 C
09.09.2012 11:00 20,4 C 74 % 1020,3 hPa 0,0 l/m 6,0 km/h (2 Bft) SO 15,5 C 20,4 C
09.09.2012 12:00 22,4 C 67 % 1019,7 hPa 0,0 l/m 7,5 km/h (2 Bft) SO 15,9 C 22,4 C
09.09.2012 13:00 23,6 C 62 % 1019,1 hPa 0,0 l/m 8,8 km/h (2 Bft) SO 16,0 C 23,6 C
09.09.2012 14:00 24,8 C 59 % 1018,3 hPa 0,0 l/m 8,5 km/h (2 Bft) SO 16,2 C 24,8 C
09.09.2012 15:00 25,7 C 56 % 1017,6 hPa 0,0 l/m 12,5 km/h (3 Bft) SO 16,3 C 25,7 C
09.09.2012 16:00 25,4 C 57 % 1016,9 hPa 0,0 l/m 8,8 km/h (2 Bft) SO 16,2 C 25,4 C
09.09.2012 17:00 25,0 C 58 % 1016,3 hPa 0,0 l/m 10,6 km/h (2 Bft) S-SO 16,2 C 25,0 C
09.09.2012 18:00 23,8 C 61 % 1015,7 hPa 0,0 l/m 7,7 km/h (2 Bft) SO 15,8 C 23,8 C
09.09.2012 19:00 21,9 C 67 % 1015,3 hPa 0,0 l/m 5,9 km/h (2 Bft) SO 15,4 C 21,9 C
09.09.2012 20:00 20,2 C 73 % 1015,2 hPa 0,0 l/m 6,0 km/h (2 Bft) SO 15,2 C 20,2 C
09.09.2012 21:00 19,3 C 76 % 1015,3 hPa 0,0 l/m 6,0 km/h (2 Bft) O-SO 14,9 C 19,3 C
09.09.2012 22:00 18,3 C 79 % 1015,1 hPa 0,0 l/m 3,9 km/h (1 Bft) O-SO 14,6 C 18,3 C
09.09.2012 23:00 17,7 C 82 % 1015,0 hPa 0,0 l/m 4,7 km/h (1 Bft) O-SO 14,5 C 17,7 C
Min-Datum _ 03.09.12 06.09.12 09.09.12 - 03.09.12 - 06.09.12 03.09.12
_ Min-Zeit 06:56 14:21 19:51 - 00:01 - 20:21 06:56
Minimum _ 10,9 C 43 % 1015,0 hPa - 0,0 km/h (0 Bft) - 6,0 C 10,9 C
Max-Datum _ 09.09.12 08.09.12 06.09.12 08.09.12 07.09.12 - 08.09.12 09.09.12
_ Max-Zeit 15:51 05:36 10:36 04:16 09:11 - 11:56 15:51
Maximum _ 25,9 C 92 % 1026,2 hPa 1,6 l/m 33,5 km/h
W-SW (5 Bft)
- 16,6 C 25,9 C
Durchschnitt _ 17,1 C 71 % 1021,6 hPa #7,3 l/m 5,3 km/h (1 Bft) W-NW 11,5 C 17,1 C
(c) by David Heller